Time;durP1;ratioP1;P1;durP2;ratioP2;P2;SDS_P1;SDS_P2;PMS_P1;PMS_P2;Temp;Humidity;BMP_temperature;BMP_pressure;BME280_temperature;BME280_humidity;BME280_pressure;Samples;Min_cycle;Max_cycle;Signal;HPM_P1;HPM_P2
2021/11/16 00:01:49;;;;;;;11.57;5.08;;;;;;;0.94;66.25;101708.09;1647640;86;21029;-64
2021/11/16 00:04:17;;;;;;;9.65;5.37;;;;;;;0.89;66.33;101714.65;1646439;85;21113;-64
2021/11/16 00:06:48;;;;;;;11.35;5.25;;;;;;;0.82;66.34;101711.08;1646277;87;21035;-64
2021/11/16 00:09:11;;;;;;;10.18;5.30;;;;;;;0.82;66.42;101713.26;1648167;86;21109;-63
2021/11/16 00:11:38;;;;;;;12.33;6.00;;;;;;;0.78;66.47;101712.51;1648176;86;21072;-63
2021/11/16 00:14:06;;;;;;;12.93;5.42;;;;;;;0.72;66.73;101713.62;1669019;84;21026;-64
2021/11/16 00:16:33;;;;;;;14.60;6.80;;;;;;;0.72;66.94;101712.78;1676043;84;21069;-63
2021/11/16 00:19:01;;;;;;;13.88;6.90;;;;;;;0.73;67.08;101708.50;1653383;84;21548;-63
2021/11/16 00:21:28;;;;;;;10.90;6.67;;;;;;;0.76;67.14;101707.28;1651043;84;20995;-65
2021/11/16 00:24:07;;;;;;;15.35;6.30;;;;;;;0.79;67.13;101710.10;1682770;84;21796;-63
2021/11/16 00:26:26;;;;;;;16.55;6.45;;;;;;;0.81;67.23;101710.75;1676634;84;21517;-64
2021/11/16 00:28:53;;;;;;;14.55;6.28;;;;;;;0.81;67.26;101708.88;1652753;84;21014;-63
2021/11/16 00:31:21;;;;;;;18.85;7.05;;;;;;;0.82;67.03;101713.80;1683031;83;21050;-63
2021/11/16 00:33:48;;;;;;;16.40;6.58;;;;;;;0.81;66.58;101708.03;1681027;84;21529;-62
2021/11/16 00:36:17;;;;;;;19.52;7.25;;;;;;;0.81;66.60;101703.96;1679878;84;21176;-63
2021/11/16 00:38:43;;;;;;;12.73;5.72;;;;;;;0.79;66.56;101700.09;1684597;84;21011;-63
2021/11/16 00:41:11;;;;;;;13.10;5.85;;;;;;;0.77;66.49;101702.16;1677568;84;21502;-64
2021/11/16 00:43:38;;;;;;;13.78;6.67;;;;;;;0.76;66.55;101689.64;1681806;84;20999;-63
2021/11/16 00:46:06;;;;;;;12.13;7.05;;;;;;;0.70;66.38;101698.05;1681925;84;21396;-63
2021/11/16 00:48:33;;;;;;;9.45;5.87;;;;;;;0.66;66.35;101695.95;1655700;84;21600;-62
2021/11/16 00:51:03;;;;;;;12.18;5.55;;;;;;;0.61;66.21;101699.27;1679407;84;21015;-62
2021/11/16 00:53:36;;;;;;;12.30;5.33;;;;;;;0.63;66.27;101700.42;1677608;84;21039;-64
2021/11/16 00:56:07;;;;;;;10.03;5.87;;;;;;;0.61;66.28;101695.20;1678037;84;21019;-64
2021/11/16 00:58:33;;;;;;;10.28;5.22;;;;;;;0.64;66.31;101693.44;1655905;84;21071;-63
2021/11/16 01:01:01;;;;;;;9.48;5.15;;;;;;;0.66;66.21;101695.44;1676638;84;21098;-63
2021/11/16 01:03:30;;;;;;;12.37;4.65;;;;;;;0.64;66.33;101696.16;1680634;84;21069;-64
2021/11/16 01:06:00;;;;;;;7.97;4.95;;;;;;;0.65;66.29;101699.71;1676914;84;21555;-63
2021/11/16 01:08:30;;;;;;;7.55;5.03;;;;;;;0.64;66.33;101694.80;1636684;87;21038;-64
2021/11/16 01:10:56;;;;;;;8.85;4.95;;;;;;;0.59;65.95;101695.41;1628530;87;21049;-62
2021/11/16 01:13:26;;;;;;;6.33;4.35;;;;;;;0.51;65.97;101698.78;1678535;84;21090;-65
2021/11/16 01:15:55;;;;;;;8.98;4.80;;;;;;;0.47;65.92;101696.47;1678558;84;21038;-63
2021/11/16 01:18:23;;;;;;;8.00;4.72;;;;;;;0.42;66.19;101693.52;1679604;84;21057;-65
2021/11/16 01:20:52;;;;;;;5.92;4.35;;;;;;;0.43;66.32;101695.19;1678315;84;21128;-63
2021/11/16 01:23:22;;;;;;;6.92;4.78;;;;;;;0.47;66.07;101695.12;1679821;84;20994;-64
2021/11/16 01:25:50;;;;;;;5.87;4.00;;;;;;;0.47;66.02;101696.98;1681032;84;21158;-64
2021/11/16 01:28:22;;;;;;;9.33;4.33;;;;;;;0.45;66.03;101690.41;1684001;83;21503;-64
2021/11/16 01:30:50;;;;;;;4.92;4.15;;;;;;;0.48;65.98;101692.71;1674080;84;21051;-63
2021/11/16 01:33:21;;;;;;;6.65;4.25;;;;;;;0.53;65.85;101692.65;1681342;84;21058;-63
2021/11/16 01:35:47;;;;;;;9.48;4.35;;;;;;;0.51;65.47;101692.00;1655454;84;21097;-64
2021/11/16 01:38:16;;;;;;;4.83;3.98;;;;;;;0.45;65.63;101693.11;1650972;84;21456;-66
2021/11/16 01:40:43;;;;;;;6.33;4.55;;;;;;;0.47;65.72;101696.47;1682623;84;21050;-63
2021/11/16 01:43:10;;;;;;;7.17;4.30;;;;;;;0.45;65.67;101688.20;1676643;84;21018;-64
2021/11/16 01:45:40;;;;;;;6.47;4.22;;;;;;;0.43;65.85;101688.40;1679084;84;21106;-64
2021/11/16 01:48:07;;;;;;;6.70;4.83;;;;;;;0.46;65.83;101689.89;1655931;84;21062;-65
2021/11/16 01:50:37;;;;;;;5.75;4.50;;;;;;;0.51;65.72;101683.86;1681066;84;21539;-64
2021/11/16 01:53:05;;;;;;;6.70;4.10;;;;;;;0.51;65.65;101683.86;1679351;84;21043;-64
2021/11/16 01:55:31;;;;;;;5.53;4.25;;;;;;;0.48;65.56;101677.80;1678884;84;21042;-65
2021/11/16 01:58:01;;;;;;;7.28;5.08;;;;;;;0.45;65.53;101680.06;1678981;84;21042;-65
2021/11/16 02:00:35;;;;;;;8.05;4.83;;;;;;;0.37;65.78;101681.06;1684337;84;21022;-63
2021/11/16 02:03:03;;;;;;;6.75;5.28;;;;;;;0.33;66.08;101682.48;1676975;84;21102;-63
2021/11/16 02:05:44;;;;;;;7.25;4.95;;;;;;;0.29;66.27;101678.51;1678535;84;20998;-63
2021/11/16 02:08:12;;;;;;;8.28;4.83;;;;;;;0.26;66.41;101681.08;1682298;84;21543;-65
2021/11/16 02:10:41;;;;;;;7.40;5.05;;;;;;;0.31;66.53;101680.48;1681986;84;21012;-62
2021/11/16 02:13:09;;;;;;;11.18;4.80;;;;;;;0.34;66.57;101674.15;1676111;84;21038;-63
2021/11/16 02:15:38;;;;;;;7.53;5.12;;;;;;;0.36;66.60;101675.30;1670710;84;21162;-65
2021/11/16 02:18:09;;;;;;;7.78;4.90;;;;;;;0.38;66.57;101667.81;1657259;84;21110;-62
2021/11/16 02:20:36;;;;;;;7.55;4.95;;;;;;;0.42;66.50;101666.90;1674256;83;21035;-63
2021/11/16 02:23:05;;;;;;;6.45;4.58;;;;;;;0.47;66.44;101662.56;1669384;85;21066;-63
2021/11/16 02:25:31;;;;;;;6.45;5.17;;;;;;;0.52;66.30;101657.88;1653359;85;21012;-64
2021/11/16 02:27:57;;;;;;;10.43;5.17;;;;;;;0.51;66.27;101664.88;1675822;85;21091;-64
2021/11/16 02:30:25;;;;;;;8.98;5.67;;;;;;;0.46;66.09;101651.91;1674152;85;21524;-63
2021/11/16 02:32:53;;;;;;;5.95;4.25;;;;;;;0.39;66.18;101650.52;1670392;85;21007;-63
2021/11/16 02:35:21;;;;;;;6.97;4.70;;;;;;;0.39;66.21;101638.82;1671846;85;21042;-62
2021/11/16 02:37:48;;;;;;;5.10;3.65;;;;;;;0.40;66.23;101642.69;1671650;85;21463;-63
2021/11/16 02:40:16;;;;;;;6.28;3.80;;;;;;;0.40;66.23;101646.75;1673946;85;21180;-63
2021/11/16 02:42:44;;;;;;;8.93;5.28;;;;;;;0.38;66.07;101642.04;1669273;84;21111;-64
2021/11/16 02:45:11;;;;;;;5.65;4.47;;;;;;;0.38;66.09;101644.75;1625093;86;21119;-61
2021/11/16 02:47:39;;;;;;;8.18;4.47;;;;;;;0.41;66.08;101634.85;1606039;87;21121;-64
2021/11/16 02:50:10;;;;;;;10.43;4.62;;;;;;;0.41;66.10;101638.11;1620664;87;21064;-64
2021/11/16 02:52:37;;;;;;;6.47;4.50;;;;;;;0.42;66.12;101631.62;1611505;87;21135;-63
2021/11/16 02:55:05;;;;;;;7.33;4.60;;;;;;;0.43;66.06;101628.72;1623575;87;21629;-64
2021/11/16 02:57:37;;;;;;;8.43;5.00;;;;;;;0.42;66.08;101635.19;1624190;87;21101;-63
2021/11/16 03:00:11;;;;;;;7.12;4.72;;;;;;;0.43;66.07;101627.36;1620926;86;21181;-62
2021/11/16 03:02:43;;;;;;;6.45;5.40;;;;;;;0.46;65.88;101629.67;1624442;86;21005;-63
2021/11/16 03:05:10;;;;;;;6.87;5.00;;;;;;;0.47;65.68;101627.30;1623820;87;21166;-63
2021/11/16 03:07:47;;;;;;;7.85;4.90;;;;;;;0.48;65.61;101628.95;1625175;87;21069;-63
2021/11/16 03:10:10;;;;;;;11.83;5.00;;;;;;;0.44;65.25;101631.77;1630991;86;21521;-62
2021/11/16 03:12:38;;;;;;;9.95;5.97;;;;;;;0.33;65.30;101630.44;1625049;87;21068;-62
2021/11/16 03:15:08;;;;;;;9.05;5.87;;;;;;;0.31;65.46;101631.16;1627591;87;21082;-63
2021/11/16 03:17:35;;;;;;;9.33;5.95;;;;;;;0.32;65.33;101625.22;1629776;87;21505;-65
2021/11/16 03:20:04;;;;;;;9.13;5.80;;;;;;;0.32;65.17;101625.22;1628171;87;21030;-65
2021/11/16 03:22:53;;;;;;;8.23;5.50;;;;;;;0.33;65.23;101627.73;1632313;87;20997;-64
2021/11/16 03:25:22;;;;;;;9.25;6.00;;;;;;;0.35;65.31;101613.45;1610594;87;21544;-65
2021/11/16 03:27:59;;;;;;;8.65;5.80;;;;;;;0.36;65.00;101614.27;1636906;86;21073;-65
2021/11/16 03:30:25;;;;;;;8.18;5.83;;;;;;;0.34;65.09;101609.05;1630758;87;21165;-63
2021/11/16 03:32:52;;;;;;;10.00;6.45;;;;;;;0.35;65.06;101613.97;1626823;87;21085;-63
2021/11/16 03:35:20;;;;;;;5.83;4.67;;;;;;;0.36;65.06;101613.76;1632322;87;21779;-64
2021/11/16 03:37:52;;;;;;;9.18;5.65;;;;;;;0.36;65.13;101608.34;1616857;87;21676;-64
2021/11/16 03:40:20;;;;;;;8.98;5.85;;;;;;;0.35;65.32;101605.83;1629336;86;21041;-63
2021/11/16 03:42:47;;;;;;;8.53;6.08;;;;;;;0.34;65.43;101606.33;1612674;87;21085;-63
2021/11/16 03:45:16;;;;;;;9.60;6.35;;;;;;;0.37;65.42;101607.83;1634287;87;21557;-63
2021/11/16 03:47:44;;;;;;;9.73;5.70;;;;;;;0.39;65.33;101607.11;1639171;87;21045;-63
2021/11/16 03:50:17;;;;;;;7.80;5.53;;;;;;;0.36;65.12;101602.91;1639534;87;21035;-62
2021/11/16 03:52:48;;;;;;;8.25;5.87;;;;;;;0.34;65.27;101604.16;1627617;87;21104;-63
2021/11/16 03:55:19;;;;;;;10.48;5.97;;;;;;;0.35;65.34;101599.05;1634968;87;21182;-62
2021/11/16 03:57:46;;;;;;;11.05;5.70;;;;;;;0.38;65.36;101600.50;1634861;87;21486;-65
2021/11/16 04:00:16;;;;;;;8.53;5.92;;;;;;;0.35;65.24;101606.67;1631409;87;21574;-63
2021/11/16 04:02:44;;;;;;;8.28;5.95;;;;;;;0.35;65.22;101607.18;1628715;86;21036;-63
2021/11/16 04:05:10;;;;;;;11.00;5.85;;;;;;;0.35;65.07;101611.25;1612439;87;21022;-64
2021/11/16 04:07:37;;;;;;;8.80;5.87;;;;;;;0.32;64.87;101607.59;1612231;87;21177;-65
2021/11/16 04:10:10;;;;;;;9.53;6.25;;;;;;;0.28;65.09;101603.59;1619445;87;21058;-63
2021/11/16 04:12:40;;;;;;;8.38;5.67;;;;;;;0.26;65.20;101601.62;1632979;87;21502;-64
2021/11/16 04:15:08;;;;;;;9.35;6.17;;;;;;;0.21;65.26;101597.61;1625778;86;21108;-64
2021/11/16 04:17:36;;;;;;;9.73;6.72;;;;;;;0.17;65.22;101604.45;1623573;87;21081;-64
2021/11/16 04:20:05;;;;;;;10.70;6.55;;;;;;;0.16;65.34;101604.16;1610776;87;21484;-64
2021/11/16 04:22:31;;;;;;;9.98;5.83;;;;;;;0.20;65.42;101601.88;1623668;87;21026;-63
2021/11/16 04:25:01;;;;;;;10.95;6.17;;;;;;;0.18;65.46;101600.73;1621806;87;21052;-62
2021/11/16 04:27:27;;;;;;;10.08;6.70;;;;;;;0.10;65.43;101594.11;1628084;87;21098;-63
2021/11/16 04:29:54;;;;;;;12.00;6.97;;;;;;;0.05;65.62;101595.22;1623578;87;21112;-64
2021/11/16 04:32:20;;;;;;;10.53;7.03;;;;;;;0.07;65.70;101595.33;1621896;87;21534;-63
2021/11/16 04:34:48;;;;;;;14.58;7.25;;;;;;;0.08;65.75;101596.17;1620915;86;21105;-64
2021/11/16 04:37:17;;;;;;;9.40;6.95;;;;;;;0.08;65.67;101604.31;1622360;87;21537;-63
2021/11/16 04:39:44;;;;;;;12.80;7.65;;;;;;;0.10;65.61;101600.89;1626152;86;21056;-65
2021/11/16 04:42:15;;;;;;;9.25;5.97;;;;;;;0.14;65.59;101603.51;1624244;86;21063;-63
2021/11/16 04:44:45;;;;;;;10.95;6.53;;;;;;;0.18;65.39;101608.02;1622374;86;21160;-64
2021/11/16 04:47:13;;;;;;;11.00;7.42;;;;;;;0.15;65.39;101605.20;1616039;87;21082;-64
2021/11/16 04:49:45;;;;;;;11.05;7.45;;;;;;;0.13;65.49;101604.55;1626593;86;21109;-65
2021/11/16 05:02:44;;;;;;;7.87;6.35;;;;;;;0.14;65.31;101597.27;1621882;87;21582;-64
2021/11/16 05:05:16;;;;;;;8.90;6.40;;;;;;;0.11;65.45;101601.20;1620658;86;21604;-63
2021/11/16 05:07:56;;;;;;;10.38;7.50;;;;;;;0.10;65.57;101598.17;1613340;87;21649;-65
2021/11/16 05:10:21;;;;;;;10.85;7.67;;;;;;;0.05;65.43;101597.94;1612546;87;21502;-65
2021/11/16 05:12:49;;;;;;;10.03;7.53;;;;;;;0.02;65.59;101595.63;1609485;87;21068;-64
2021/11/16 05:15:18;;;;;;;10.55;7.55;;;;;;;0.03;65.76;101600.00;1626302;87;21044;-65
2021/11/16 05:17:49;;;;;;;10.43;7.33;;;;;;;0.07;65.76;101598.58;1603926;87;21541;-65
2021/11/16 05:20:20;;;;;;;11.45;6.95;;;;;;;0.08;65.74;101600.25;1602920;87;21084;-65
2021/11/16 05:22:50;;;;;;;11.10;7.75;;;;;;;0.08;65.71;101599.73;1631040;87;21411;-64
2021/11/16 05:25:16;;;;;;;13.40;7.83;;;;;;;0.13;65.64;101603.20;1630698;87;21072;-64
2021/11/16 05:27:43;;;;;;;9.90;6.95;;;;;;;0.16;65.70;101603.30;1604735;87;22073;-63
2021/11/16 05:30:15;;;;;;;9.55;7.10;;;;;;;0.18;65.69;101611.58;1627655;87;21593;-62
2021/11/16 05:32:43;;;;;;;10.75;7.35;;;;;;;0.15;65.83;101609.27;1602021;87;21044;-63
2021/11/16 05:35:11;;;;;;;11.40;7.50;;;;;;;0.16;65.91;101612.29;1630569;87;21524;-64
2021/11/16 05:37:39;;;;;;;12.18;7.28;;;;;;;0.21;65.86;101614.39;1629528;87;21213;-64
2021/11/16 05:40:09;;;;;;;10.93;7.17;;;;;;;0.26;65.80;101609.75;1630466;87;21068;-64
2021/11/16 05:42:38;;;;;;;9.65;7.50;;;;;;;0.28;65.72;101611.72;1630807;87;21076;-63
2021/11/16 05:45:05;;;;;;;10.88;7.37;;;;;;;0.28;65.68;101610.36;1581689;87;21640;-63
2021/11/16 05:47:38;;;;;;;9.33;6.42;;;;;;;0.25;65.75;101614.33;1631430;87;21076;-64
2021/11/16 05:50:08;;;;;;;10.55;7.17;;;;;;;0.23;65.49;101615.89;1630639;87;21537;-65
2021/11/16 05:52:36;;;;;;;12.63;7.00;;;;;;;0.17;65.29;101618.02;1630634;87;21033;-64
2021/11/16 05:55:02;;;;;;;12.73;8.40;;;;;;;0.17;65.42;101618.02;1633501;86;21021;-64
2021/11/16 05:57:30;;;;;;;9.43;7.62;;;;;;;0.20;65.22;101616.29;1636880;86;21029;-65
2021/11/16 05:59:58;;;;;;;10.32;7.50;;;;;;;0.20;64.86;101619.00;1639007;87;21145;-65
2021/11/16 06:02:24;;;;;;;10.88;7.75;;;;;;;0.20;64.87;101616.80;1611093;87;21072;-64
2021/11/16 06:04:53;;;;;;;14.40;7.95;;;;;;;0.19;64.92;101620.53;1638060;87;21031;-64
2021/11/16 06:07:19;;;;;;;11.90;8.13;;;;;;;0.22;65.08;101626.94;1608163;87;21123;-63
2021/11/16 06:09:50;;;;;;;15.55;8.88;;;;;;;0.26;65.18;101626.84;1633627;87;21087;-63
2021/11/16 06:12:19;;;;;;;14.18;8.33;;;;;;;0.29;65.10;101624.27;1601983;87;21878;-63
2021/11/16 06:14:46;;;;;;;13.43;7.78;;;;;;;0.30;64.93;101627.28;1630313;85;21044;-63
2021/11/16 06:17:14;;;;;;;10.28;7.70;;;;;;;0.29;64.95;101620.20;1613474;87;21026;-62
2021/11/16 06:19:43;;;;;;;11.33;7.55;;;;;;;0.29;64.92;101622.91;1628667;87;21074;-61
2021/11/16 06:22:12;;;;;;;14.78;8.28;;;;;;;0.27;64.99;101627.69;1597707;87;21151;-62
2021/11/16 06:24:39;;;;;;;15.83;9.18;;;;;;;0.23;65.05;101624.53;1615779;86;21229;-63
2021/11/16 06:27:06;;;;;;;13.03;8.78;;;;;;;0.24;65.13;101626.20;1622660;87;21060;-64
2021/11/16 06:29:33;;;;;;;14.23;7.58;;;;;;;0.25;64.84;101622.47;1612819;87;21050;-63
2021/11/16 06:32:01;;;;;;;11.28;7.85;;;;;;;0.26;64.84;101622.77;1625507;86;22188;-63
2021/11/16 06:34:29;;;;;;;16.48;8.28;;;;;;;0.30;64.97;101630.00;1629387;86;21075;-62
2021/11/16 06:36:56;;;;;;;14.58;8.50;;;;;;;0.34;65.09;101631.29;1623036;87;22014;-63
2021/11/16 06:39:22;;;;;;;10.00;7.17;;;;;;;0.36;64.74;101624.61;1621032;86;21511;-64
2021/11/16 06:41:51;;;;;;;20.60;9.03;;;;;;;0.38;64.89;101627.13;1625464;87;21025;-63
2021/11/16 06:44:19;;;;;;;11.83;8.15;;;;;;;0.40;64.98;101630.48;1628127;87;21025;-63
2021/11/16 06:46:48;;;;;;;11.18;7.50;;;;;;;0.42;64.84;101629.77;1629196;87;21575;-63
2021/11/16 06:49:18;;;;;;;10.82;7.00;;;;;;;0.43;64.55;101627.36;1623850;87;21148;-64
2021/11/16 06:51:48;;;;;;;11.80;7.72;;;;;;;0.44;64.30;101622.78;1624835;87;21556;-63
2021/11/16 06:54:25;;;;;;;13.53;7.87;;;;;;;0.44;64.25;101624.14;1625277;86;21098;-64
2021/11/16 06:56:57;;;;;;;11.38;7.22;;;;;;;0.45;64.36;101623.09;1601050;87;22099;-63
2021/11/16 06:59:24;;;;;;;13.90;8.65;;;;;;;0.47;64.08;101613.73;1624347;87;21582;-65
2021/11/16 07:01:56;;;;;;;12.70;7.97;;;;;;;0.48;63.85;101622.17;1628357;87;21128;-64
2021/11/16 07:04:23;;;;;;;18.00;8.00;;;;;;;0.50;64.07;101617.05;1623118;87;21086;-63
2021/11/16 07:06:52;;;;;;;15.60;7.28;;;;;;;0.53;64.26;101611.25;1611251;87;21040;-62
2021/11/16 07:09:21;;;;;;;12.50;6.95;;;;;;;0.52;64.25;101620.41;1631229;86;21519;-64
2021/11/16 07:11:54;;;;;;;11.00;7.65;;;;;;;0.52;64.29;101617.70;1616648;86;21179;-63
2021/11/16 07:14:24;;;;;;;17.50;8.88;;;;;;;0.57;64.33;101620.64;1630691;86;21445;-63
2021/11/16 07:16:57;;;;;;;17.73;9.18;;;;;;;0.62;64.23;101619.52;1631735;85;21035;-64
2021/11/16 07:19:44;;;;;;;10.82;7.90;;;;;;;0.63;63.99;101621.73;1679055;84;21041;-64
2021/11/16 07:22:18;;;;;;;9.83;7.15;;;;;;;0.62;63.90;101620.88;1666363;84;21008;-63
2021/11/16 07:24:50;;;;;;;10.60;6.87;;;;;;;0.64;63.99;101615.25;1675348;84;21126;-63
2021/11/16 07:27:23;;;;;;;;;;;;;;;0.67;63.96;101609.41;1649761;84;21252;-63
2021/11/16 07:29:58;;;;;;;19.77;9.50;;;;;;;0.69;64.03;101604.62;1627267;84;20484;-63
2021/11/16 07:32:31;;;;;;;14.30;8.70;;;;;;;0.67;64.08;101607.55;1658813;84;21050;-63
2021/11/16 07:35:06;;;;;;;11.35;7.87;;;;;;;0.66;64.40;101598.25;1661428;84;21023;-64
2021/11/16 07:37:35;;;;;;;17.23;8.90;;;;;;;0.71;64.38;101598.48;1653215;84;21049;-63
2021/11/16 07:40:13;;;;;;;14.15;8.18;;;;;;;0.75;64.36;101594.84;1684951;84;21807;-63
2021/11/16 07:43:06;;;;;;;10.43;7.47;;;;;;;0.80;63.92;101597.79;1665867;84;21430;-63
2021/11/16 07:45:43;;;;;;;12.75;7.83;;;;;;;0.85;63.71;101599.37;1677115;84;21090;-63
2021/11/16 07:48:26;;;;;;;18.62;8.45;;;;;;;0.91;63.33;101597.70;1643920;84;21184;-63
2021/11/16 07:50:56;;;;;;;11.73;7.37;;;;;;;0.96;63.04;101599.28;1677996;84;21004;-63
2021/11/16 07:53:39;;;;;;;11.35;7.47;;;;;;;0.97;62.77;101598.27;1678513;84;21150;-63
2021/11/16 07:56:13;;;;;;;10.45;7.58;;;;;;;0.96;62.80;101597.92;1681409;84;21030;-62
2021/11/16 07:58:52;;;;;;;12.82;7.62;;;;;;;0.93;62.30;101592.91;1681313;84;21082;-62
2021/11/16 08:01:25;;;;;;;15.93;7.22;;;;;;;0.89;62.31;101591.66;1657501;84;21098;-63
2021/11/16 08:03:53;;;;;;;10.20;7.53;;;;;;;0.87;62.45;101593.20;1680832;84;21067;-64
2021/11/16 08:06:33;;;;;;;13.53;7.72;;;;;;;0.88;62.73;101586.75;1603604;87;21251;-63
2021/11/16 08:14:49;;;;;;;11.68;7.35;;;;;;;0.95;63.22;101580.82;1685791;84;21467;-63
2021/11/16 08:17:17;;;;;;;10.32;8.00;;;;;;;0.99;63.12;101584.48;1685335;84;21083;-65
2021/11/16 08:19:49;;;;;;;15.63;7.92;;;;;;;1.04;62.82;101578.73;1687168;85;21771;-64
2021/11/16 08:22:19;;;;;;;15.78;8.05;;;;;;;1.09;62.57;101582.21;1682778;84;21532;-65
2021/11/16 08:24:50;;;;;;;14.83;8.20;;;;;;;1.15;62.44;101584.60;1659402;85;21020;-66
2021/11/16 08:27:25;;;;;;;15.53;9.08;;;;;;;1.18;62.27;101584.19;1687176;85;21091;-66
2021/11/16 08:30:04;;;;;;;12.23;8.03;;;;;;;1.20;62.11;101585.67;1686800;85;21068;-64
2021/11/16 08:32:39;;;;;;;13.08;8.45;;;;;;;1.23;61.90;101581.69;1691441;84;21166;-63
2021/11/16 08:35:16;;;;;;;10.90;7.67;;;;;;;1.24;61.86;101582.02;1692983;84;20967;-64
2021/11/16 08:37:46;;;;;;;10.40;7.67;;;;;;;1.20;61.64;101575.32;1687567;83;21067;-64
2021/11/16 08:40:23;;;;;;;21.95;10.23;;;;;;;1.17;61.63;101575.22;1659037;86;21027;-65
2021/11/16 08:43:02;;;;;;;15.43;9.20;;;;;;;1.23;61.68;101565.94;1659460;86;21397;-66
2021/11/16 08:45:35;;;;;;;14.20;7.87;;;;;;;1.25;61.56;101568.74;1659107;86;22196;-64
2021/11/16 08:48:10;;;;;;;13.13;8.55;;;;;;;1.21;61.30;101560.17;1659271;86;21083;-65
2021/11/16 08:50:57;;;;;;;14.90;8.13;;;;;;;1.19;61.29;101558.72;1631860;86;21107;-65
2021/11/16 08:53:32;;;;;;;14.18;8.20;;;;;;;1.18;61.31;101553.80;1659315;86;21631;-65
2021/11/16 08:55:59;;;;;;;15.83;7.92;;;;;;;1.19;61.33;101554.13;1651292;86;21119;-64
2021/11/16 08:58:28;;;;;;;10.93;7.03;;;;;;;1.21;61.61;101550.66;1632392;86;21813;-65
2021/11/16 09:00:58;;;;;;;11.65;8.13;;;;;;;1.35;61.67;101547.95;1658910;86;21559;-63
2021/11/16 09:03:29;;;;;;;15.32;9.33;;;;;;;1.54;61.86;101546.81;1696743;83;21091;-63
2021/11/16 09:06:03;;;;;;;12.75;7.85;;;;;;;1.76;61.42;101550.14;1723479;83;21529;-64
2021/11/16 09:08:33;;;;;;;11.90;8.10;;;;;;;1.89;60.77;101554.74;1724632;83;21033;-63
2021/11/16 09:11:18;;;;;;;16.15;7.62;;;;;;;1.90;60.36;101545.53;1690342;83;21149;-64
2021/11/16 09:13:47;;;;;;;14.93;7.28;;;;;;;1.85;59.90;101543.97;1659211;85;21106;-64
2021/11/16 09:16:18;;;;;;;8.73;6.55;;;;;;;1.76;59.96;101532.47;1688228;84;21015;-64
2021/11/16 09:18:51;;;;;;;12.40;7.05;;;;;;;1.81;59.99;101531.83;1685697;84;21050;-65
2021/11/16 09:21:26;;;;;;;12.65;7.70;;;;;;;1.88;60.28;101532.66;1688252;84;21014;-65
2021/11/16 09:24:05;;;;;;;10.35;7.20;;;;;;;1.92;60.26;101533.92;1672473;84;21247;-64
2021/11/16 09:26:52;;;;;;;10.78;7.45;;;;;;;1.99;60.26;101528.47;1672236;84;21100;-64
2021/11/16 09:29:16;;;;;;;17.40;9.93;;;;;;;2.16;60.27;101523.40;1694472;84;21125;-64
2021/11/16 09:32:08;;;;;;;9.53;6.78;;;;;;;2.34;59.92;101517.77;1688608;84;21083;-65
2021/11/16 09:34:37;;;;;;;12.03;6.95;;;;;;;2.50;59.41;101516.45;1692559;84;21051;-63
2021/11/16 09:37:18;;;;;;;12.75;7.75;;;;;;;2.69;59.03;101515.20;1661243;84;21943;-63
2021/11/16 09:39:53;;;;;;;13.22;7.80;;;;;;;2.84;58.78;101506.73;1666395;84;21098;-64
2021/11/16 09:42:28;;;;;;;16.02;9.40;;;;;;;3.04;58.75;101505.23;1697839;84;21089;-65
2021/11/16 09:44:59;;;;;;;13.98;8.40;;;;;;;3.18;58.13;101500.20;1688351;83;21018;-64
2021/11/16 09:47:29;;;;;;;19.85;8.65;;;;;;;3.31;57.38;101492.47;1691591;84;21038;-65
2021/11/16 09:50:05;;;;;;;10.85;7.45;;;;;;;3.25;56.83;101499.11;1635569;87;21119;-63
2021/11/16 09:52:43;;;;;;;15.80;8.98;;;;;;;3.21;56.55;101494.34;1621226;88;21045;-64
2021/11/16 09:55:14;;;;;;;16.35;9.30;;;;;;;3.14;56.30;101498.45;1659500;86;21151;-64
2021/11/16 09:57:52;;;;;;;17.37;9.98;;;;;;;3.09;56.24;101496.95;1658659;86;21481;-63
2021/11/16 10:00:26;;;;;;;13.08;9.18;;;;;;;3.12;56.57;101484.23;1639850;87;21072;-64
2021/11/16 10:03:04;;;;;;;29.98;12.78;;;;;;;3.20;56.55;101489.41;1649729;86;21164;-64
2021/11/16 10:05:32;;;;;;;19.52;10.95;;;;;;;3.25;56.29;101481.41;1597020;88;21551;-63
2021/11/16 10:08:01;;;;;;;18.45;9.08;;;;;;;3.30;56.02;101482.09;1615011;87;21114;-64
2021/11/16 10:10:31;;;;;;;14.35;8.83;;;;;;;3.32;55.73;101482.71;1636589;87;21068;-64
2021/11/16 10:13:02;;;;;;;15.72;8.98;;;;;;;3.32;55.55;101477.27;1631337;87;21123;-62
2021/11/16 10:15:31;;;;;;;12.40;7.35;;;;;;;3.31;55.23;101478.30;1617047;87;22394;-63
2021/11/16 10:17:59;;;;;;;11.40;8.00;;;;;;;3.27;55.19;101471.13;1625283;87;21069;-62
2021/11/16 10:20:32;;;;;;;12.30;7.90;;;;;;;3.25;54.97;101475.95;1628231;87;21038;-63
2021/11/16 10:23:00;;;;;;;13.53;7.78;;;;;;;3.23;55.08;101469.89;1626800;87;21061;-62
2021/11/16 10:25:31;;;;;;;13.32;9.35;;;;;;;3.26;55.01;101466.71;1609997;87;21100;-62
2021/11/16 10:28:07;;;;;;;21.15;9.43;;;;;;;3.33;54.98;101452.18;1624590;87;21160;-62
2021/11/16 10:30:34;;;;;;;21.30;9.98;;;;;;;3.44;55.05;101447.37;1626137;87;21064;-64
2021/11/16 10:33:22;;;;;;;15.70;9.18;;;;;;;3.55;55.35;101447.15;1623663;86;21181;-63
2021/11/16 10:35:53;;;;;;;15.55;9.50;;;;;;;3.67;54.89;101451.88;1610815;87;21046;-63
2021/11/16 10:38:24;;;;;;;17.45;9.63;;;;;;;3.68;54.51;101453.02;1625260;87;21033;-64
2021/11/16 10:40:52;;;;;;;15.50;9.55;;;;;;;3.71;54.58;101442.17;1622524;87;21178;-64
2021/11/16 10:43:18;;;;;;;16.82;8.58;;;;;;;3.73;54.26;101443.63;1612318;87;21057;-63
2021/11/16 10:45:49;;;;;;;13.98;8.95;;;;;;;3.74;54.46;101434.89;1623307;87;21570;-63
2021/11/16 10:48:20;;;;;;;12.30;7.70;;;;;;;3.82;54.74;101431.86;1611985;87;21026;-63
2021/11/16 10:50:50;;;;;;;15.35;9.03;;;;;;;3.98;54.51;101430.42;1624032;87;21058;-63
2021/11/16 10:53:23;;;;;;;20.20;10.63;;;;;;;4.10;54.08;101426.91;1628259;86;21171;-63
2021/11/16 10:55:55;;;;;;;16.77;9.93;;;;;;;4.23;53.56;101417.74;1620945;87;21505;-64
2021/11/16 10:58:27;;;;;;;18.60;11.53;;;;;;;4.23;53.56;101417.74;1618279;87;21791;-62
2021/11/16 11:00:59;;;;;;;17.10;10.90;;;;;;;4.26;53.27;101411.81;1627316;87;21018;-63
2021/11/16 11:03:29;;;;;;;19.57;10.50;;;;;;;4.29;53.20;101413.23;1630684;87;21081;-63
2021/11/16 11:06:18;;;;;;;22.07;11.48;;;;;;;4.33;53.05;101409.80;1626375;87;21802;-63
2021/11/16 11:08:54;;;;;;;18.45;10.98;;;;;;;4.37;52.84;101406.92;1612155;87;21104;-63
2021/11/16 11:11:26;;;;;;;16.97;9.65;;;;;;;4.28;52.46;101406.13;1621958;87;21197;-63
2021/11/16 11:14:13;;;;;;;16.93;10.75;;;;;;;4.26;52.74;101404.44;1630687;86;21062;-64
2021/11/16 11:16:47;;;;;;;19.42;11.05;;;;;;;4.59;52.09;101410.49;1620520;87;21115;-63
2021/11/16 11:19:17;;;;;;;19.85;10.63;;;;;;;5.00;52.10;101396.19;1621788;87;21171;-64
2021/11/16 11:21:50;;;;;;;30.97;14.50;;;;;;;5.57;51.99;101392.02;1623943;87;21010;-64
2021/11/16 11:24:25;;;;;;;20.50;12.30;;;;;;;5.96;50.60;101394.18;1615915;87;21003;-64
2021/11/16 11:27:09;;;;;;;19.98;10.98;;;;;;;6.02;49.36;101387.44;1622406;87;21084;-63
2021/11/16 11:29:45;;;;;;;16.77;12.25;;;;;;;5.96;49.47;101387.34;1624907;87;21117;-62
2021/11/16 11:32:32;;;;;;;16.65;11.08;;;;;;;5.98;49.11;101385.73;1612613;87;21065;-63
2021/11/16 11:35:15;;;;;;;18.12;10.23;;;;;;;5.89;49.06;101383.91;1612920;87;21073;-64
2021/11/16 11:37:53;;;;;;;17.25;10.28;;;;;;;5.75;49.29;101379.23;1612123;87;21128;-65
2021/11/16 11:40:29;;;;;;;15.83;10.53;;;;;;;5.68;49.20;101385.41;1629992;86;21083;-64
2021/11/16 11:43:00;;;;;;;23.07;10.72;;;;;;;5.63;49.47;101382.55;1612189;87;21056;-63
2021/11/16 11:45:34;;;;;;;18.75;12.15;;;;;;;5.63;49.67;101383.92;1625678;86;21140;-64
2021/11/16 11:48:18;;;;;;;15.48;10.85;;;;;;;5.65;49.38;101374.39;1619280;87;21088;-64
2021/11/16 11:50:46;;;;;;;20.08;12.47;;;;;;;5.63;49.35;101379.27;1624213;87;21035;-64
2021/11/16 11:53:19;;;;;;;21.60;11.53;;;;;;;5.62;49.20;101378.14;1629327;87;21092;-65
2021/11/16 11:55:52;;;;;;;17.07;10.82;;;;;;;5.57;49.02;101373.41;1627452;86;27446;-64
2021/11/16 11:58:23;;;;;;;17.82;11.10;;;;;;;5.49;48.96;101366.41;1630955;86;21478;-63
2021/11/16 12:00:53;;;;;;;16.10;10.72;;;;;;;5.46;48.95;101364.98;1630332;86;21017;-66